createdAt,value
2022-08-16T00:01:40.667Z,100.00
2022-08-16T00:04:38.054Z,100.00
2022-08-16T00:07:34.938Z,100.00
2022-08-16T00:10:35.819Z,100.00
2022-08-16T00:13:41.695Z,100.00
2022-08-16T00:17:06.215Z,100.00
2022-08-16T00:19:56.469Z,100.00
2022-08-16T00:22:54.172Z,100.00
2022-08-16T00:26:34.885Z,100.00
2022-08-16T00:29:08.247Z,100.00
2022-08-16T00:32:18.094Z,100.00
2022-08-16T00:35:25.270Z,100.00
2022-08-16T00:38:41.111Z,100.00
2022-08-16T00:41:39.324Z,100.00
2022-08-16T00:44:44.005Z,100.00
2022-08-16T00:47:48.928Z,100.00
2022-08-16T00:50:47.091Z,100.00
2022-08-16T00:53:53.802Z,100.00
2022-08-16T00:56:58.395Z,100.00
2022-08-16T00:59:59.552Z,100.00
2022-08-16T01:03:01.042Z,100.00
2022-08-16T01:05:59.442Z,100.00
2022-08-16T01:09:00.136Z,100.00
2022-08-16T01:11:57.206Z,100.00
2022-08-16T01:14:58.675Z,100.00
2022-08-16T01:17:56.359Z,100.00
2022-08-16T01:21:16.185Z,100.00
2022-08-16T01:24:53.377Z,100.00
2022-08-16T01:27:52.298Z,100.00
2022-08-16T01:30:55.287Z,100.00
2022-08-16T01:33:52.493Z,100.00
2022-08-16T01:36:58.243Z,100.00
2022-08-16T01:39:55.394Z,100.00
2022-08-16T01:42:54.039Z,100.00
2022-08-16T01:45:57.858Z,100.00
2022-08-16T01:49:06.147Z,100.00
2022-08-16T01:52:28.154Z,100.00
2022-08-16T01:55:26.995Z,100.00
2022-08-16T01:58:32.720Z,100.00
2022-08-16T02:01:31.968Z,100.00
2022-08-16T02:04:49.709Z,100.00
2022-08-16T02:07:48.023Z,100.00
2022-08-16T02:10:49.082Z,100.00
2022-08-16T02:13:46.595Z,100.00
2022-08-16T02:16:51.765Z,100.00
2022-08-16T02:20:00.222Z,100.00
2022-08-16T02:23:00.062Z,100.00
2022-08-16T02:25:59.559Z,100.00
2022-08-16T02:28:56.950Z,100.00
2022-08-16T02:32:03.083Z,100.00
2022-08-16T02:35:01.071Z,100.00
2022-08-16T02:38:08.620Z,100.00
2022-08-16T02:41:09.748Z,100.00
2022-08-16T02:44:11.324Z,100.00
2022-08-16T02:47:10.898Z,100.00
2022-08-16T02:50:54.375Z,100.00
2022-08-16T02:53:44.769Z,100.00
2022-08-16T02:56:42.746Z,100.00
2022-08-16T02:59:44.970Z,100.00
2022-08-16T03:02:44.607Z,100.00
2022-08-16T03:05:42.239Z,100.00
2022-08-16T03:08:50.282Z,100.00
2022-08-16T03:11:48.340Z,100.00
2022-08-16T03:14:47.971Z,100.00
2022-08-16T03:17:53.055Z,100.00
2022-08-16T03:20:55.763Z,100.00
2022-08-16T03:23:52.951Z,100.00
2022-08-16T03:26:50.672Z,100.00
2022-08-16T03:29:54.131Z,100.00
2022-08-16T03:32:52.273Z,100.00
2022-08-16T03:35:57.159Z,100.00
2022-08-16T03:38:54.263Z,100.00
2022-08-16T03:41:59.946Z,100.00
2022-08-16T03:45:03.876Z,100.00
2022-08-16T03:48:07.199Z,100.00
2022-08-16T03:51:12.953Z,100.00
2022-08-16T03:54:12.388Z,100.00
2022-08-16T03:57:11.499Z,100.00
2022-08-16T04:00:35.519Z,100.00
2022-08-16T04:03:35.281Z,100.00
2022-08-16T04:06:33.315Z,100.00
2022-08-16T04:09:35.479Z,100.00
2022-08-16T04:12:53.171Z,100.00
2022-08-16T04:15:50.161Z,100.00
2022-08-16T04:18:49.769Z,100.00
2022-08-16T04:21:47.471Z,100.00
2022-08-16T04:24:54.370Z,100.00
2022-08-16T04:27:55.786Z,100.00
2022-08-16T04:30:53.913Z,100.00
2022-08-16T04:33:51.568Z,100.00
2022-08-16T04:36:49.300Z,100.00
2022-08-16T04:39:55.268Z,100.00
2022-08-16T04:42:53.428Z,100.00
2022-08-16T04:46:00.023Z,100.00
2022-08-16T04:48:57.464Z,100.00
2022-08-16T04:51:55.404Z,100.00
2022-08-16T04:54:52.402Z,100.00
2022-08-16T04:57:53.458Z,100.00
2022-08-16T05:00:50.784Z,100.00
2022-08-16T05:04:00.454Z,100.00
2022-08-16T05:06:58.089Z,100.00
2022-08-16T05:09:54.923Z,100.00
2022-08-16T05:12:52.211Z,100.00
2022-08-16T05:15:49.800Z,100.00
2022-08-16T05:18:48.660Z,100.00
2022-08-16T05:21:45.501Z,100.00
2022-08-16T05:24:43.847Z,100.00
2022-08-16T05:27:43.282Z,100.00
2022-08-16T05:30:40.439Z,100.00
2022-08-16T05:33:42.231Z,100.00
2022-08-16T05:36:39.854Z,100.00
2022-08-16T05:39:41.160Z,100.00
2022-08-16T05:42:38.467Z,100.00
2022-08-16T05:45:36.533Z,100.00
2022-08-16T05:48:33.610Z,100.00
2022-08-16T05:51:38.542Z,100.00
2022-08-16T05:54:36.900Z,100.00
2022-08-16T05:57:41.951Z,100.00
2022-08-16T06:00:39.901Z,100.00
2022-08-16T06:03:37.771Z,100.00
2022-08-16T06:06:34.891Z,100.00
2022-08-16T06:09:44.558Z,100.00
2022-08-16T06:12:41.973Z,100.00
2022-08-16T06:15:41.542Z,100.00
2022-08-16T06:18:38.634Z,100.00
2022-08-16T06:21:36.652Z,100.00
2022-08-16T06:24:54.243Z,100.00
2022-08-16T06:27:57.150Z,100.00
2022-08-16T06:30:54.592Z,100.00
2022-08-16T06:33:51.834Z,100.00
2022-08-16T06:36:51.011Z,100.00
2022-08-16T06:39:56.321Z,100.00
2022-08-16T06:42:57.294Z,100.00
2022-08-16T06:45:54.747Z,100.00
2022-08-16T06:48:51.857Z,100.00
2022-08-16T06:51:49.332Z,100.00
2022-08-16T06:54:46.340Z,100.00
2022-08-16T06:57:46.820Z,100.00
2022-08-16T07:00:44.486Z,100.00
2022-08-16T07:03:55.526Z,100.00
2022-08-16T07:06:54.646Z,100.00
2022-08-16T07:09:51.560Z,100.00
2022-08-16T07:13:04.004Z,100.00
2022-08-16T07:16:14.437Z,100.00
2022-08-16T07:19:12.425Z,100.00
2022-08-16T07:22:38.597Z,100.00
2022-08-16T07:25:27.302Z,100.00
2022-08-16T07:28:24.729Z,100.00
2022-08-16T07:31:21.884Z,100.00
2022-08-16T07:34:19.606Z,100.00
2022-08-16T07:37:32.207Z,100.00
2022-08-16T07:40:49.585Z,100.00
2022-08-16T07:43:47.510Z,100.00
2022-08-16T07:46:44.644Z,100.00
2022-08-16T07:49:53.184Z,100.00
2022-08-16T07:52:55.117Z,100.00
2022-08-16T07:55:52.861Z,100.00
2022-08-16T07:58:49.964Z,100.00
2022-08-16T08:01:53.983Z,100.00
2022-08-16T08:04:53.100Z,100.00
2022-08-16T08:07:52.974Z,100.00
2022-08-16T08:10:54.588Z,100.00
2022-08-16T08:13:53.960Z,100.00
2022-08-16T08:16:50.875Z,100.00
2022-08-16T08:19:53.317Z,100.00
2022-08-16T08:22:51.404Z,100.00
2022-08-16T08:25:55.190Z,100.00
2022-08-16T08:28:52.693Z,100.00
2022-08-16T08:31:51.458Z,100.00
2022-08-16T08:34:48.880Z,100.00
2022-08-16T08:37:54.236Z,100.00
2022-08-16T08:40:51.922Z,100.00
2022-08-16T08:43:50.371Z,100.00
2022-08-16T08:47:00.086Z,100.00
2022-08-16T08:49:58.952Z,100.00
2022-08-16T08:52:55.946Z,100.00
2022-08-16T08:55:58.813Z,100.00
2022-08-16T08:58:59.211Z,100.00
2022-08-16T09:01:59.540Z,100.00
2022-08-16T09:04:57.234Z,100.00
2022-08-16T09:08:01.754Z,100.00
2022-08-16T09:11:03.359Z,100.00
2022-08-16T09:14:05.746Z,100.00
2022-08-16T09:17:21.551Z,100.00
2022-08-16T09:20:23.397Z,100.00
2022-08-16T09:23:21.069Z,100.00
2022-08-16T09:26:45.537Z,100.00
2022-08-16T09:29:44.950Z,99.25
2022-08-16T09:32:47.015Z,100.00
2022-08-16T09:35:46.861Z,100.00
2022-08-16T09:38:51.183Z,99.11
2022-08-16T09:41:59.826Z,96.34
2022-08-16T09:45:12.533Z,100.00
2022-08-16T09:48:36.922Z,100.00
2022-08-16T09:51:36.760Z,100.00
2022-08-16T09:54:34.526Z,100.00
2022-08-16T09:57:34.576Z,100.00
2022-08-16T10:00:43.946Z,100.00
2022-08-16T10:04:02.685Z,100.00
2022-08-16T10:10:00.951Z,100.00
2022-08-16T10:13:16.163Z,100.00
2022-08-16T10:19:13.531Z,100.00
2022-08-16T10:22:17.176Z,100.00
2022-08-16T10:27:17.502Z,99.69
2022-08-16T10:28:31.909Z,99.89
2022-08-16T10:31:45.649Z,95.20
2022-08-16T10:34:43.147Z,94.00
2022-08-16T10:37:41.952Z,99.26
2022-08-16T10:40:41.080Z,85.84
2022-08-16T10:43:43.091Z,81.06
2022-08-16T10:46:42.206Z,80.37
2022-08-16T10:49:39.387Z,86.26
2022-08-16T10:55:44.112Z,76.23
2022-08-16T10:58:42.383Z,76.81
2022-08-16T11:01:43.895Z,82.80
2022-08-16T11:07:59.069Z,82.75
2022-08-16T11:11:06.767Z,87.25
2022-08-16T11:14:11.671Z,81.33
2022-08-16T11:17:11.412Z,81.71
2022-08-16T11:23:28.403Z,88.26
2022-08-16T11:26:25.932Z,79.02
2022-08-16T11:29:22.795Z,90.45
2022-08-16T11:32:31.622Z,75.14
2022-08-16T11:38:56.964Z,75.09
2022-08-16T11:41:55.303Z,74.99
2022-08-16T11:44:57.098Z,65.53
2022-08-16T11:47:55.160Z,72.59
2022-08-16T11:50:52.852Z,63.00
2022-08-16T11:53:49.824Z,65.60
2022-08-16T11:56:53.099Z,77.43
2022-08-16T11:59:54.583Z,76.90
2022-08-16T12:02:51.805Z,68.24
2022-08-16T12:05:51.927Z,74.35
2022-08-16T12:08:52.233Z,70.60
2022-08-16T12:11:52.770Z,67.67
2022-08-16T12:14:59.247Z,71.63
2022-08-16T12:17:57.342Z,62.46
2022-08-16T12:20:58.357Z,63.45
2022-08-16T12:23:56.855Z,70.74
2022-08-16T12:26:54.637Z,72.29
2022-08-16T12:29:53.757Z,71.89
2022-08-16T12:32:51.596Z,72.85
2022-08-16T12:35:50.313Z,72.35
2022-08-16T12:38:48.399Z,60.27
2022-08-16T12:41:46.268Z,74.30
2022-08-16T12:44:43.384Z,68.96
2022-08-16T12:48:22.579Z,72.31
2022-08-16T12:51:24.182Z,69.29
2022-08-16T12:54:22.197Z,76.15
2022-08-16T12:57:19.027Z,74.94
2022-08-16T13:00:26.607Z,82.30
2022-08-16T13:03:23.686Z,68.05
2022-08-16T13:06:21.644Z,71.80
2022-08-16T13:09:31.736Z,57.78
2022-08-16T13:12:42.779Z,60.46
2022-08-16T13:15:51.795Z,55.64
2022-08-16T13:18:54.526Z,54.78
2022-08-16T13:21:51.505Z,55.71
2022-08-16T13:24:50.551Z,54.14
2022-08-16T13:28:02.280Z,51.93
2022-08-16T13:31:03.303Z,50.54
2022-08-16T13:34:00.212Z,52.29
2022-08-16T13:36:57.039Z,57.81
2022-08-16T13:39:53.918Z,50.46
2022-08-16T13:42:53.765Z,51.75
2022-08-16T13:45:51.608Z,54.20
2022-08-16T13:48:52.259Z,57.28
2022-08-16T13:51:49.702Z,63.29
2022-08-16T13:54:46.556Z,63.44
2022-08-16T13:57:53.166Z,71.58
2022-08-16T14:00:52.782Z,62.92
2022-08-16T14:03:50.421Z,61.83
2022-08-16T14:06:51.575Z,59.11
2022-08-16T14:09:50.368Z,54.29
2022-08-16T14:12:52.084Z,57.88
2022-08-16T14:15:49.428Z,57.51
2022-08-16T14:18:46.975Z,58.84
2022-08-16T14:22:02.293Z,52.24
2022-08-16T14:25:10.304Z,48.74
2022-08-16T14:28:09.667Z,50.58
2022-08-16T14:31:06.739Z,52.12
2022-08-16T14:34:07.177Z,48.57
2022-08-16T14:37:08.180Z,51.57
2022-08-16T14:40:08.605Z,50.56
2022-08-16T14:43:07.646Z,58.34
2022-08-16T14:46:07.399Z,54.25
2022-08-16T14:49:04.568Z,57.65
2022-08-16T14:52:13.639Z,58.99
2022-08-16T14:55:12.161Z,54.90
2022-08-16T14:58:18.789Z,64.31
2022-08-16T15:01:17.153Z,60.73
2022-08-16T15:04:37.826Z,59.22
2022-08-16T15:07:35.022Z,61.83
2022-08-16T15:10:32.769Z,62.78
2022-08-16T15:13:29.647Z,61.72
2022-08-16T15:16:29.101Z,55.83
2022-08-16T15:19:26.205Z,55.55
2022-08-16T15:22:39.042Z,62.15
2022-08-16T15:25:42.903Z,60.46
2022-08-16T15:28:40.629Z,54.42
2022-08-16T15:31:41.409Z,53.11
2022-08-16T15:34:44.637Z,56.08
2022-08-16T15:37:42.728Z,58.47
2022-08-16T15:40:57.528Z,60.31
2022-08-16T15:44:05.202Z,58.18
2022-08-16T15:47:14.620Z,55.21
2022-08-16T15:50:12.342Z,56.60
2022-08-16T15:53:17.343Z,65.03
2022-08-16T15:56:14.605Z,56.53
2022-08-16T15:59:12.464Z,57.68
2022-08-16T16:02:10.892Z,62.62
2022-08-16T16:05:11.787Z,62.78
2022-08-16T16:08:11.454Z,68.83
2022-08-16T16:11:09.806Z,61.86
2022-08-16T16:14:07.451Z,57.80
2022-08-16T16:17:06.199Z,57.12
2022-08-16T16:20:05.358Z,56.10
2022-08-16T16:23:14.941Z,56.45
2022-08-16T16:26:15.285Z,56.16
2022-08-16T16:29:15.594Z,56.93
2022-08-16T16:32:12.965Z,54.96
2022-08-16T16:35:13.050Z,57.39
2022-08-16T16:38:10.117Z,59.65
2022-08-16T16:41:11.416Z,59.54
2022-08-16T16:44:09.118Z,62.96
2022-08-16T16:47:07.067Z,67.46
2022-08-16T16:50:05.829Z,62.44
2022-08-16T16:53:17.265Z,63.63
2022-08-16T16:56:20.019Z,62.60
2022-08-16T16:59:25.450Z,65.56
2022-08-16T17:02:41.304Z,71.14
2022-08-16T17:05:42.062Z,71.19
2022-08-16T17:08:51.941Z,70.81
2022-08-16T17:11:55.193Z,76.40
2022-08-16T17:14:55.510Z,76.80
2022-08-16T17:17:59.998Z,82.94
2022-08-16T17:20:58.712Z,81.75
2022-08-16T17:23:58.954Z,85.97
2022-08-16T17:27:18.136Z,85.69
2022-08-16T17:30:20.446Z,91.86
2022-08-16T17:33:26.443Z,84.79
2022-08-16T17:36:36.289Z,87.41
2022-08-16T17:39:59.527Z,86.54
2022-08-16T17:42:55.199Z,90.14
2022-08-16T17:45:52.062Z,89.29
2022-08-16T17:48:50.009Z,87.26
2022-08-16T17:51:47.531Z,92.49
2022-08-16T17:54:45.094Z,91.60
2022-08-16T17:57:42.014Z,98.37
2022-08-16T18:00:40.829Z,93.77
2022-08-16T18:04:07.556Z,98.17
2022-08-16T18:06:59.699Z,95.22
2022-08-16T18:09:56.650Z,98.32
2022-08-16T18:12:56.001Z,100.00
2022-08-16T18:15:53.211Z,100.00
2022-08-16T18:18:50.452Z,100.00
2022-08-16T18:22:05.673Z,100.00
2022-08-16T18:25:05.428Z,100.00
2022-08-16T18:28:03.237Z,100.00
2022-08-16T18:31:01.197Z,100.00
2022-08-16T18:34:02.651Z,100.00
2022-08-16T18:37:00.248Z,100.00
2022-08-16T18:39:58.152Z,100.00
2022-08-16T18:43:06.253Z,100.00
2022-08-16T18:46:03.217Z,100.00
2022-08-16T18:49:00.101Z,100.00
2022-08-16T18:51:59.499Z,100.00
2022-08-16T18:55:02.043Z,100.00
2022-08-16T18:58:01.628Z,100.00
2022-08-16T19:00:58.479Z,100.00
2022-08-16T19:04:00.178Z,100.00
2022-08-16T19:06:57.140Z,100.00
2022-08-16T19:09:53.983Z,100.00
2022-08-16T19:12:51.304Z,100.00
2022-08-16T19:15:51.670Z,100.00
2022-08-16T19:18:48.936Z,100.00
2022-08-16T19:21:45.770Z,100.00
2022-08-16T19:24:44.139Z,100.00
2022-08-16T19:27:42.637Z,100.00
2022-08-16T19:30:40.476Z,100.00
2022-08-16T19:33:37.906Z,100.00
2022-08-16T19:36:38.195Z,100.00
2022-08-16T19:39:36.551Z,100.00
2022-08-16T19:42:33.538Z,100.00
2022-08-16T19:45:30.626Z,100.00
2022-08-16T19:48:27.556Z,100.00
2022-08-16T19:51:24.375Z,100.00
2022-08-16T19:54:21.213Z,100.00
2022-08-16T19:57:19.733Z,100.00
2022-08-16T20:00:18.932Z,100.00
2022-08-16T20:03:21.256Z,100.00
2022-08-16T20:06:38.594Z,100.00
2022-08-16T20:09:35.095Z,100.00
2022-08-16T20:12:32.097Z,100.00
2022-08-16T20:15:31.669Z,100.00
2022-08-16T20:18:28.645Z,100.00
2022-08-16T20:21:25.605Z,100.00
2022-08-16T20:24:34.119Z,100.00
2022-08-16T20:27:32.597Z,100.00
2022-08-16T20:30:29.791Z,100.00
2022-08-16T20:33:26.635Z,100.00
2022-08-16T20:36:24.478Z,100.00
2022-08-16T20:39:23.366Z,100.00
2022-08-16T20:42:27.055Z,100.00
2022-08-16T20:45:26.969Z,100.00
2022-08-16T20:48:24.561Z,100.00
2022-08-16T20:51:21.391Z,100.00
2022-08-16T20:54:18.690Z,100.00
2022-08-16T20:57:16.546Z,100.00
2022-08-16T21:00:14.713Z,100.00
2022-08-16T21:03:13.066Z,100.00
2022-08-16T21:06:09.962Z,100.00
2022-08-16T21:09:07.396Z,100.00
2022-08-16T21:12:11.398Z,100.00
2022-08-16T21:15:11.229Z,100.00
2022-08-16T21:18:10.086Z,100.00
2022-08-16T21:21:06.963Z,100.00
2022-08-16T21:24:04.212Z,100.00
2022-08-16T21:27:02.737Z,100.00
2022-08-16T21:30:00.374Z,100.00
2022-08-16T21:33:07.618Z,100.00
2022-08-16T21:36:04.999Z,100.00
2022-08-16T21:39:01.843Z,100.00
2022-08-16T21:41:59.081Z,100.00
2022-08-16T21:44:55.980Z,100.00
2022-08-16T21:47:52.830Z,100.00
2022-08-16T21:50:49.652Z,100.00
2022-08-16T21:53:46.548Z,100.00
2022-08-16T21:56:43.389Z,100.00
2022-08-16T21:59:40.220Z,100.00
2022-08-16T22:02:38.803Z,100.00
2022-08-16T22:05:38.434Z,100.00
2022-08-16T22:08:39.554Z,100.00
2022-08-16T22:11:46.877Z,100.00
2022-08-16T22:14:43.714Z,100.00
2022-08-16T22:17:41.793Z,100.00
2022-08-16T22:20:41.257Z,100.00
2022-08-16T22:23:38.359Z,100.00
2022-08-16T22:26:42.767Z,100.00
2022-08-16T22:29:42.328Z,100.00
2022-08-16T22:32:44.727Z,100.00
2022-08-16T22:35:52.824Z,100.00
2022-08-16T22:38:56.640Z,100.00
2022-08-16T22:41:54.824Z,100.00
2022-08-16T22:44:52.494Z,100.00
2022-08-16T22:47:50.153Z,100.00
2022-08-16T22:50:47.165Z,100.00
2022-08-16T22:53:44.117Z,100.00
2022-08-16T22:56:40.970Z,100.00
2022-08-16T22:59:37.806Z,100.00
2022-08-16T23:02:34.653Z,100.00
2022-08-16T23:05:42.196Z,100.00
2022-08-16T23:08:41.685Z,100.00
2022-08-16T23:11:38.572Z,100.00
2022-08-16T23:14:35.477Z,100.00
2022-08-16T23:17:32.309Z,100.00
2022-08-16T23:20:29.603Z,100.00
2022-08-16T23:23:27.844Z,100.00
2022-08-16T23:26:46.488Z,100.00
2022-08-16T23:29:41.638Z,100.00
2022-08-16T23:32:54.452Z,100.00
2022-08-16T23:35:56.098Z,100.00
2022-08-16T23:38:52.975Z,100.00
2022-08-16T23:41:49.801Z,100.00
2022-08-16T23:44:58.929Z,100.00
2022-08-16T23:47:57.064Z,100.00
2022-08-16T23:50:56.255Z,100.00
2022-08-16T23:53:55.610Z,100.00
2022-08-16T23:56:52.518Z,100.00
2022-08-16T23:59:52.449Z,100.00
